sensor_id;sensor_type;location;lat;lon;timestamp;P1;durP1;ratioP1;P2;durP2;ratioP2
49998;SDS011;68071;45.062;7.356;2023-03-18T00:01:46;26.80;;;21.05;;
49998;SDS011;68071;45.062;7.356;2023-03-18T00:04:50;25.08;;;20.33;;
49998;SDS011;68071;45.062;7.356;2023-03-18T00:07:55;22.27;;;18.50;;
49998;SDS011;68071;45.062;7.356;2023-03-18T00:10:59;22.30;;;18.83;;
49998;SDS011;68071;45.062;7.356;2023-03-18T00:14:04;23.88;;;19.85;;
49998;SDS011;68071;45.062;7.356;2023-03-18T00:17:08;25.10;;;20.23;;
49998;SDS011;68071;45.062;7.356;2023-03-18T00:20:12;24.10;;;20.23;;
49998;SDS011;68071;45.062;7.356;2023-03-18T00:23:19;22.65;;;19.92;;
49998;SDS011;68071;45.062;7.356;2023-03-18T00:26:24;22.55;;;18.90;;
49998;SDS011;68071;45.062;7.356;2023-03-18T00:29:29;21.55;;;19.23;;
49998;SDS011;68071;45.062;7.356;2023-03-18T00:32:33;24.15;;;18.92;;
49998;SDS011;68071;45.062;7.356;2023-03-18T00:35:37;22.80;;;18.75;;
49998;SDS011;68071;45.062;7.356;2023-03-18T00:38:42;21.60;;;18.77;;
49998;SDS011;68071;45.062;7.356;2023-03-18T00:41:48;22.85;;;19.50;;
49998;SDS011;68071;45.062;7.356;2023-03-18T00:44:55;23.85;;;19.67;;
49998;SDS011;68071;45.062;7.356;2023-03-18T00:48:00;24.98;;;19.20;;
49998;SDS011;68071;45.062;7.356;2023-03-18T00:51:04;24.35;;;19.52;;
49998;SDS011;68071;45.062;7.356;2023-03-18T00:54:09;25.70;;;21.30;;
49998;SDS011;68071;45.062;7.356;2023-03-18T00:57:15;26.25;;;21.52;;
49998;SDS011;68071;45.062;7.356;2023-03-18T01:00:19;23.83;;;20.08;;
49998;SDS011;68071;45.062;7.356;2023-03-18T01:03:24;24.27;;;19.83;;
49998;SDS011;68071;45.062;7.356;2023-03-18T01:06:30;27.40;;;20.70;;
49998;SDS011;68071;45.062;7.356;2023-03-18T01:09:36;24.10;;;21.50;;
49998;SDS011;68071;45.062;7.356;2023-03-18T01:12:43;30.27;;;22.38;;
49998;SDS011;68071;45.062;7.356;2023-03-18T01:15:49;24.48;;;20.20;;
49998;SDS011;68071;45.062;7.356;2023-03-18T01:18:53;27.60;;;21.05;;
49998;SDS011;68071;45.062;7.356;2023-03-18T01:21:57;29.83;;;23.25;;
49998;SDS011;68071;45.062;7.356;2023-03-18T01:25:02;28.00;;;22.95;;
49998;SDS011;68071;45.062;7.356;2023-03-18T01:28:12;29.20;;;23.10;;
49998;SDS011;68071;45.062;7.356;2023-03-18T01:31:17;23.02;;;20.58;;
49998;SDS011;68071;45.062;7.356;2023-03-18T01:34:22;24.27;;;18.80;;
49998;SDS011;68071;45.062;7.356;2023-03-18T01:37:28;24.58;;;18.98;;
49998;SDS011;68071;45.062;7.356;2023-03-18T01:40:44;27.48;;;22.38;;
49998;SDS011;68071;45.062;7.356;2023-03-18T01:43:53;27.25;;;20.02;;
49998;SDS011;68071;45.062;7.356;2023-03-18T01:46:58;21.35;;;18.40;;
49998;SDS011;68071;45.062;7.356;2023-03-18T01:50:03;23.08;;;18.30;;
49998;SDS011;68071;45.062;7.356;2023-03-18T01:53:08;24.63;;;19.35;;
49998;SDS011;68071;45.062;7.356;2023-03-18T01:56:16;25.80;;;21.90;;
49998;SDS011;68071;45.062;7.356;2023-03-18T01:59:24;24.90;;;20.05;;
49998;SDS011;68071;45.062;7.356;2023-03-18T02:02:32;23.50;;;19.15;;
49998;SDS011;68071;45.062;7.356;2023-03-18T02:05:36;27.02;;;20.58;;
49998;SDS011;68071;45.062;7.356;2023-03-18T02:08:41;25.05;;;19.38;;
49998;SDS011;68071;45.062;7.356;2023-03-18T02:11:45;24.48;;;18.88;;
49998;SDS011;68071;45.062;7.356;2023-03-18T02:14:54;24.52;;;20.10;;
49998;SDS011;68071;45.062;7.356;2023-03-18T02:18:01;28.35;;;21.40;;
49998;SDS011;68071;45.062;7.356;2023-03-18T02:21:21;25.40;;;21.73;;
49998;SDS011;68071;45.062;7.356;2023-03-18T02:27:59;24.13;;;21.08;;
49998;SDS011;68071;45.062;7.356;2023-03-18T02:31:09;24.65;;;20.33;;
49998;SDS011;68071;45.062;7.356;2023-03-18T02:34:16;23.08;;;20.40;;
49998;SDS011;68071;45.062;7.356;2023-03-18T02:37:23;22.65;;;19.17;;
49998;SDS011;68071;45.062;7.356;2023-03-18T02:40:29;24.33;;;19.33;;
49998;SDS011;68071;45.062;7.356;2023-03-18T02:43:38;24.88;;;20.02;;
49998;SDS011;68071;45.062;7.356;2023-03-18T02:46:48;23.13;;;20.42;;
49998;SDS011;68071;45.062;7.356;2023-03-18T02:49:58;23.13;;;19.38;;
49998;SDS011;68071;45.062;7.356;2023-03-18T02:53:03;24.15;;;19.52;;
49998;SDS011;68071;45.062;7.356;2023-03-18T02:56:07;28.50;;;20.52;;
49998;SDS011;68071;45.062;7.356;2023-03-18T02:59:12;26.30;;;19.80;;
49998;SDS011;68071;45.062;7.356;2023-03-18T03:02:17;34.97;;;26.57;;
49998;SDS011;68071;45.062;7.356;2023-03-18T03:05:21;32.60;;;24.00;;
49998;SDS011;68071;45.062;7.356;2023-03-18T03:08:25;35.75;;;26.85;;
49998;SDS011;68071;45.062;7.356;2023-03-18T03:11:29;42.88;;;30.30;;
49998;SDS011;68071;45.062;7.356;2023-03-18T03:14:42;36.08;;;27.58;;
49998;SDS011;68071;45.062;7.356;2023-03-18T03:17:46;29.20;;;22.92;;
49998;SDS011;68071;45.062;7.356;2023-03-18T03:20:54;25.55;;;20.23;;
49998;SDS011;68071;45.062;7.356;2023-03-18T03:23:58;29.15;;;21.92;;
49998;SDS011;68071;45.062;7.356;2023-03-18T03:27:02;26.55;;;19.20;;
49998;SDS011;68071;45.062;7.356;2023-03-18T03:30:08;24.48;;;19.05;;
49998;SDS011;68071;45.062;7.356;2023-03-18T03:33:14;25.58;;;20.30;;
49998;SDS011;68071;45.062;7.356;2023-03-18T03:36:18;27.77;;;20.63;;
49998;SDS011;68071;45.062;7.356;2023-03-18T03:39:22;26.27;;;20.10;;
49998;SDS011;68071;45.062;7.356;2023-03-18T03:42:26;28.05;;;24.38;;
49998;SDS011;68071;45.062;7.356;2023-03-18T03:45:30;27.25;;;21.73;;
49998;SDS011;68071;45.062;7.356;2023-03-18T03:48:35;25.52;;;20.80;;
49998;SDS011;68071;45.062;7.356;2023-03-18T03:51:40;24.60;;;20.90;;
49998;SDS011;68071;45.062;7.356;2023-03-18T03:54:44;26.67;;;21.17;;
49998;SDS011;68071;45.062;7.356;2023-03-18T03:57:49;25.63;;;20.30;;
49998;SDS011;68071;45.062;7.356;2023-03-18T04:00:53;26.05;;;19.83;;
49998;SDS011;68071;45.062;7.356;2023-03-18T04:03:58;26.33;;;20.48;;
49998;SDS011;68071;45.062;7.356;2023-03-18T04:07:03;22.77;;;20.30;;
49998;SDS011;68071;45.062;7.356;2023-03-18T04:10:10;25.67;;;21.60;;
49998;SDS011;68071;45.062;7.356;2023-03-18T04:13:20;24.38;;;20.13;;
49998;SDS011;68071;45.062;7.356;2023-03-18T04:16:25;26.55;;;20.83;;
49998;SDS011;68071;45.062;7.356;2023-03-18T04:22:37;30.23;;;23.15;;
49998;SDS011;68071;45.062;7.356;2023-03-18T04:25:45;25.73;;;21.08;;
49998;SDS011;68071;45.062;7.356;2023-03-18T04:28:52;23.75;;;21.15;;
49998;SDS011;68071;45.062;7.356;2023-03-18T04:31:57;24.30;;;21.65;;
49998;SDS011;68071;45.062;7.356;2023-03-18T04:35:04;28.80;;;22.08;;
49998;SDS011;68071;45.062;7.356;2023-03-18T04:38:10;28.08;;;22.35;;
49998;SDS011;68071;45.062;7.356;2023-03-18T04:41:15;27.17;;;21.13;;
49998;SDS011;68071;45.062;7.356;2023-03-18T04:44:20;29.17;;;22.35;;
49998;SDS011;68071;45.062;7.356;2023-03-18T04:47:28;27.92;;;21.80;;
49998;SDS011;68071;45.062;7.356;2023-03-18T04:50:35;26.45;;;19.55;;
49998;SDS011;68071;45.062;7.356;2023-03-18T04:53:41;24.77;;;20.15;;
49998;SDS011;68071;45.062;7.356;2023-03-18T04:59:52;22.70;;;19.00;;
49998;SDS011;68071;45.062;7.356;2023-03-18T05:02:57;24.42;;;19.75;;
49998;SDS011;68071;45.062;7.356;2023-03-18T05:06:04;26.02;;;20.02;;
49998;SDS011;68071;45.062;7.356;2023-03-18T05:09:22;25.67;;;20.70;;
49998;SDS011;68071;45.062;7.356;2023-03-18T05:15:33;24.58;;;20.17;;
49998;SDS011;68071;45.062;7.356;2023-03-18T05:18:38;28.23;;;21.63;;
49998;SDS011;68071;45.062;7.356;2023-03-18T05:21:44;24.50;;;21.35;;
49998;SDS011;68071;45.062;7.356;2023-03-18T05:24:49;23.98;;;20.52;;
49998;SDS011;68071;45.062;7.356;2023-03-18T05:27:54;24.92;;;19.05;;
49998;SDS011;68071;45.062;7.356;2023-03-18T05:31:18;25.15;;;19.55;;
49998;SDS011;68071;45.062;7.356;2023-03-18T05:37:31;22.55;;;20.08;;
49998;SDS011;68071;45.062;7.356;2023-03-18T05:40:41;24.00;;;20.13;;
49998;SDS011;68071;45.062;7.356;2023-03-18T05:43:55;24.38;;;20.33;;
49998;SDS011;68071;45.062;7.356;2023-03-18T05:47:01;27.60;;;21.30;;
49998;SDS011;68071;45.062;7.356;2023-03-18T05:50:34;25.25;;;20.33;;
49998;SDS011;68071;45.062;7.356;2023-03-18T05:53:44;25.23;;;19.77;;
49998;SDS011;68071;45.062;7.356;2023-03-18T05:56:59;24.50;;;19.30;;
49998;SDS011;68071;45.062;7.356;2023-03-18T06:00:05;24.90;;;19.85;;
49998;SDS011;68071;45.062;7.356;2023-03-18T06:03:25;28.95;;;20.63;;
49998;SDS011;68071;45.062;7.356;2023-03-18T06:06:31;24.35;;;19.98;;
49998;SDS011;68071;45.062;7.356;2023-03-18T06:09:35;23.42;;;19.48;;
49998;SDS011;68071;45.062;7.356;2023-03-18T06:12:41;23.73;;;20.17;;
49998;SDS011;68071;45.062;7.356;2023-03-18T06:15:47;25.75;;;18.83;;
49998;SDS011;68071;45.062;7.356;2023-03-18T06:18:51;21.73;;;18.70;;
49998;SDS011;68071;45.062;7.356;2023-03-18T06:21:56;23.15;;;18.42;;
49998;SDS011;68071;45.062;7.356;2023-03-18T06:25:01;21.42;;;18.40;;
49998;SDS011;68071;45.062;7.356;2023-03-18T06:28:09;24.77;;;21.00;;
49998;SDS011;68071;45.062;7.356;2023-03-18T06:31:14;26.98;;;22.33;;
49998;SDS011;68071;45.062;7.356;2023-03-18T06:34:18;23.57;;;20.20;;
49998;SDS011;68071;45.062;7.356;2023-03-18T06:37:23;25.42;;;19.02;;
49998;SDS011;68071;45.062;7.356;2023-03-18T06:40:27;25.75;;;20.65;;
49998;SDS011;68071;45.062;7.356;2023-03-18T06:43:34;29.85;;;23.75;;
49998;SDS011;68071;45.062;7.356;2023-03-18T06:46:39;27.65;;;21.13;;
49998;SDS011;68071;45.062;7.356;2023-03-18T06:49:45;27.48;;;21.95;;
49998;SDS011;68071;45.062;7.356;2023-03-18T06:52:54;25.35;;;20.13;;
49998;SDS011;68071;45.062;7.356;2023-03-18T06:56:05;27.00;;;20.02;;
49998;SDS011;68071;45.062;7.356;2023-03-18T06:59:24;23.88;;;18.55;;
49998;SDS011;68071;45.062;7.356;2023-03-18T07:02:35;23.98;;;19.30;;
49998;SDS011;68071;45.062;7.356;2023-03-18T07:05:46;24.90;;;19.08;;
49998;SDS011;68071;45.062;7.356;2023-03-18T07:08:52;29.60;;;21.58;;
49998;SDS011;68071;45.062;7.356;2023-03-18T07:11:58;28.17;;;20.20;;
49998;SDS011;68071;45.062;7.356;2023-03-18T07:15:09;26.15;;;20.25;;
49998;SDS011;68071;45.062;7.356;2023-03-18T07:18:22;27.10;;;19.58;;
49998;SDS011;68071;45.062;7.356;2023-03-18T07:21:28;28.92;;;20.75;;
49998;SDS011;68071;45.062;7.356;2023-03-18T07:24:41;23.92;;;18.92;;
49998;SDS011;68071;45.062;7.356;2023-03-18T07:27:56;23.52;;;18.15;;
49998;SDS011;68071;45.062;7.356;2023-03-18T07:31:06;22.95;;;18.40;;
49998;SDS011;68071;45.062;7.356;2023-03-18T07:34:26;22.27;;;18.70;;
49998;SDS011;68071;45.062;7.356;2023-03-18T07:37:43;24.27;;;18.25;;
49998;SDS011;68071;45.062;7.356;2023-03-18T07:40:49;26.33;;;17.60;;
49998;SDS011;68071;45.062;7.356;2023-03-18T07:43:56;22.80;;;18.00;;
49998;SDS011;68071;45.062;7.356;2023-03-18T07:47:02;22.83;;;17.13;;
49998;SDS011;68071;45.062;7.356;2023-03-18T07:50:07;23.92;;;17.15;;
49998;SDS011;68071;45.062;7.356;2023-03-18T07:53:12;23.38;;;17.10;;
49998;SDS011;68071;45.062;7.356;2023-03-18T07:56:17;22.27;;;16.35;;
49998;SDS011;68071;45.062;7.356;2023-03-18T07:59:22;21.65;;;16.98;;
49998;SDS011;68071;45.062;7.356;2023-03-18T08:02:27;22.63;;;17.67;;
49998;SDS011;68071;45.062;7.356;2023-03-18T08:05:33;21.05;;;16.23;;
49998;SDS011;68071;45.062;7.356;2023-03-18T08:08:38;21.65;;;16.73;;
49998;SDS011;68071;45.062;7.356;2023-03-18T08:11:43;19.30;;;15.18;;
49998;SDS011;68071;45.062;7.356;2023-03-18T08:14:47;20.55;;;15.73;;
49998;SDS011;68071;45.062;7.356;2023-03-18T08:17:53;22.40;;;15.85;;
49998;SDS011;68071;45.062;7.356;2023-03-18T08:20:59;22.55;;;16.08;;
49998;SDS011;68071;45.062;7.356;2023-03-18T08:24:05;20.42;;;15.88;;
49998;SDS011;68071;45.062;7.356;2023-03-18T08:30:15;21.80;;;17.95;;
49998;SDS011;68071;45.062;7.356;2023-03-18T08:33:24;24.70;;;16.67;;
49998;SDS011;68071;45.062;7.356;2023-03-18T08:39:33;20.33;;;16.33;;
49998;SDS011;68071;45.062;7.356;2023-03-18T08:42:37;25.20;;;17.25;;
49998;SDS011;68071;45.062;7.356;2023-03-18T08:45:42;20.65;;;17.00;;
49998;SDS011;68071;45.062;7.356;2023-03-18T08:48:46;23.65;;;17.20;;
49998;SDS011;68071;45.062;7.356;2023-03-18T08:51:51;20.90;;;16.02;;
49998;SDS011;68071;45.062;7.356;2023-03-18T08:54:55;19.98;;;15.52;;
49998;SDS011;68071;45.062;7.356;2023-03-18T08:57:59;20.98;;;15.63;;
49998;SDS011;68071;45.062;7.356;2023-03-18T09:01:04;21.55;;;15.95;;
49998;SDS011;68071;45.062;7.356;2023-03-18T09:04:09;23.83;;;16.95;;
49998;SDS011;68071;45.062;7.356;2023-03-18T09:07:13;21.67;;;15.60;;
49998;SDS011;68071;45.062;7.356;2023-03-18T09:10:19;21.95;;;16.17;;
49998;SDS011;68071;45.062;7.356;2023-03-18T09:13:25;21.52;;;16.77;;
49998;SDS011;68071;45.062;7.356;2023-03-18T09:16:29;27.83;;;17.57;;
49998;SDS011;68071;45.062;7.356;2023-03-18T09:19:34;22.65;;;17.55;;
49998;SDS011;68071;45.062;7.356;2023-03-18T09:22:39;23.25;;;16.65;;
49998;SDS011;68071;45.062;7.356;2023-03-18T09:25:45;21.42;;;16.55;;
49998;SDS011;68071;45.062;7.356;2023-03-18T09:28:53;21.27;;;16.58;;
49998;SDS011;68071;45.062;7.356;2023-03-18T09:31:57;27.02;;;18.33;;
49998;SDS011;68071;45.062;7.356;2023-03-18T09:35:01;23.23;;;16.70;;
49998;SDS011;68071;45.062;7.356;2023-03-18T09:38:10;25.00;;;17.92;;
49998;SDS011;68071;45.062;7.356;2023-03-18T09:41:45;27.30;;;17.08;;
49998;SDS011;68071;45.062;7.356;2023-03-18T09:45:49;22.50;;;16.67;;
49998;SDS011;68071;45.062;7.356;2023-03-18T09:55:47;24.90;;;18.15;;
49998;SDS011;68071;45.062;7.356;2023-03-18T09:59:24;25.20;;;18.58;;
49998;SDS011;68071;45.062;7.356;2023-03-18T10:02:39;25.27;;;16.65;;
49998;SDS011;68071;45.062;7.356;2023-03-18T10:06:16;27.67;;;18.42;;
49998;SDS011;68071;45.062;7.356;2023-03-18T10:09:33;23.45;;;18.05;;
49998;SDS011;68071;45.062;7.356;2023-03-18T10:12:46;25.38;;;17.58;;
49998;SDS011;68071;45.062;7.356;2023-03-18T10:16:05;27.23;;;18.80;;
49998;SDS011;68071;45.062;7.356;2023-03-18T10:19:26;25.58;;;17.33;;
49998;SDS011;68071;45.062;7.356;2023-03-18T10:22:49;27.73;;;17.63;;
49998;SDS011;68071;45.062;7.356;2023-03-18T10:26:15;24.45;;;17.23;;
49998;SDS011;68071;45.062;7.356;2023-03-18T10:39:57;25.95;;;18.75;;
49998;SDS011;68071;45.062;7.356;2023-03-18T10:43:14;22.40;;;17.40;;
49998;SDS011;68071;45.062;7.356;2023-03-18T10:46:20;27.70;;;19.02;;
49998;SDS011;68071;45.062;7.356;2023-03-18T10:52:39;25.55;;;17.52;;
49998;SDS011;68071;45.062;7.356;2023-03-18T10:56:09;24.65;;;16.45;;
49998;SDS011;68071;45.062;7.356;2023-03-18T10:59:16;22.85;;;17.25;;
49998;SDS011;68071;45.062;7.356;2023-03-18T11:02:31;25.30;;;17.95;;
49998;SDS011;68071;45.062;7.356;2023-03-18T11:05:37;22.05;;;17.13;;
49998;SDS011;68071;45.062;7.356;2023-03-18T11:08:48;23.83;;;18.10;;
49998;SDS011;68071;45.062;7.356;2023-03-18T11:11:56;24.23;;;18.23;;
49998;SDS011;68071;45.062;7.356;2023-03-18T11:15:09;24.70;;;19.27;;
49998;SDS011;68071;45.062;7.356;2023-03-18T11:18:16;26.70;;;18.70;;
49998;SDS011;68071;45.062;7.356;2023-03-18T11:21:26;24.08;;;19.27;;
49998;SDS011;68071;45.062;7.356;2023-03-18T11:24:32;26.02;;;19.85;;
49998;SDS011;68071;45.062;7.356;2023-03-18T11:27:46;26.10;;;19.67;;
49998;SDS011;68071;45.062;7.356;2023-03-18T11:30:54;23.02;;;18.63;;
49998;SDS011;68071;45.062;7.356;2023-03-18T11:34:00;23.88;;;17.45;;
49998;SDS011;68071;45.062;7.356;2023-03-18T11:37:11;24.55;;;18.90;;
49998;SDS011;68071;45.062;7.356;2023-03-18T11:43:29;26.10;;;18.48;;
49998;SDS011;68071;45.062;7.356;2023-03-18T11:46:36;21.60;;;16.75;;
49998;SDS011;68071;45.062;7.356;2023-03-18T11:49:46;25.02;;;18.85;;
49998;SDS011;68071;45.062;7.356;2023-03-18T11:56:16;25.23;;;18.45;;
49998;SDS011;68071;45.062;7.356;2023-03-18T12:00:02;25.02;;;18.88;;
49998;SDS011;68071;45.062;7.356;2023-03-18T12:03:31;26.02;;;18.02;;
49998;SDS011;68071;45.062;7.356;2023-03-18T12:07:03;23.17;;;18.20;;
49998;SDS011;68071;45.062;7.356;2023-03-18T12:10:33;21.00;;;18.10;;
49998;SDS011;68071;45.062;7.356;2023-03-18T12:16:57;21.75;;;17.23;;
49998;SDS011;68071;45.062;7.356;2023-03-18T12:46:47;25.73;;;18.48;;
49998;SDS011;68071;45.062;7.356;2023-03-18T12:50:08;24.80;;;18.17;;
49998;SDS011;68071;45.062;7.356;2023-03-18T12:53:41;25.08;;;17.83;;
49998;SDS011;68071;45.062;7.356;2023-03-18T12:56:52;25.92;;;19.48;;
49998;SDS011;68071;45.062;7.356;2023-03-18T13:03:30;24.60;;;18.38;;
49998;SDS011;68071;45.062;7.356;2023-03-18T13:10:30;24.17;;;17.83;;
49998;SDS011;68071;45.062;7.356;2023-03-18T13:17:00;25.92;;;17.25;;
49998;SDS011;68071;45.062;7.356;2023-03-18T13:44:20;23.65;;;17.13;;
49998;SDS011;68071;45.062;7.356;2023-03-18T13:47:41;24.40;;;18.58;;
49998;SDS011;68071;45.062;7.356;2023-03-18T13:50:53;36.15;;;18.33;;
49998;SDS011;68071;45.062;7.356;2023-03-18T13:54:04;24.38;;;16.73;;
49998;SDS011;68071;45.062;7.356;2023-03-18T14:00:43;21.50;;;17.50;;
49998;SDS011;68071;45.062;7.356;2023-03-18T14:06:55;25.98;;;19.25;;
49998;SDS011;68071;45.062;7.356;2023-03-18T14:10:10;24.33;;;18.05;;
49998;SDS011;68071;45.062;7.356;2023-03-18T14:13:25;23.73;;;18.52;;
49998;SDS011;68071;45.062;7.356;2023-03-18T14:19:53;21.63;;;17.08;;
49998;SDS011;68071;45.062;7.356;2023-03-18T14:26:38;21.33;;;16.30;;
49998;SDS011;68071;45.062;7.356;2023-03-18T14:29:45;22.45;;;16.50;;
49998;SDS011;68071;45.062;7.356;2023-03-18T14:32:57;22.42;;;17.00;;
49998;SDS011;68071;45.062;7.356;2023-03-18T14:36:07;23.20;;;17.40;;
49998;SDS011;68071;45.062;7.356;2023-03-18T14:39:26;21.55;;;16.55;;
49998;SDS011;68071;45.062;7.356;2023-03-18T14:42:42;23.38;;;16.40;;
49998;SDS011;68071;45.062;7.356;2023-03-18T14:46:07;23.02;;;16.77;;
49998;SDS011;68071;45.062;7.356;2023-03-18T14:52:39;23.45;;;17.30;;
49998;SDS011;68071;45.062;7.356;2023-03-18T14:55:51;23.48;;;17.35;;
49998;SDS011;68071;45.062;7.356;2023-03-18T14:58:57;21.70;;;16.75;;
49998;SDS011;68071;45.062;7.356;2023-03-18T15:02:02;22.55;;;17.27;;
49998;SDS011;68071;45.062;7.356;2023-03-18T15:05:16;23.52;;;17.60;;
49998;SDS011;68071;45.062;7.356;2023-03-18T15:08:26;26.15;;;16.92;;
49998;SDS011;68071;45.062;7.356;2023-03-18T15:11:39;21.63;;;16.63;;
49998;SDS011;68071;45.062;7.356;2023-03-18T15:14:46;21.73;;;16.17;;
49998;SDS011;68071;45.062;7.356;2023-03-18T15:17:53;22.63;;;17.10;;
49998;SDS011;68071;45.062;7.356;2023-03-18T15:20:59;21.33;;;16.67;;
49998;SDS011;68071;45.062;7.356;2023-03-18T15:24:10;20.65;;;16.13;;
49998;SDS011;68071;45.062;7.356;2023-03-18T15:27:20;22.33;;;15.65;;
49998;SDS011;68071;45.062;7.356;2023-03-18T15:30:26;23.35;;;17.20;;
49998;SDS011;68071;45.062;7.356;2023-03-18T15:33:34;23.35;;;16.55;;
49998;SDS011;68071;45.062;7.356;2023-03-18T15:36:40;25.92;;;17.60;;
49998;SDS011;68071;45.062;7.356;2023-03-18T15:39:46;23.30;;;18.50;;
49998;SDS011;68071;45.062;7.356;2023-03-18T15:46:27;24.75;;;17.73;;
49998;SDS011;68071;45.062;7.356;2023-03-18T15:49:41;24.02;;;17.67;;
49998;SDS011;68071;45.062;7.356;2023-03-18T15:56:27;24.20;;;17.70;;
49998;SDS011;68071;45.062;7.356;2023-03-18T15:59:34;24.90;;;17.42;;
49998;SDS011;68071;45.062;7.356;2023-03-18T16:02:38;24.65;;;16.27;;
49998;SDS011;68071;45.062;7.356;2023-03-18T16:05:43;24.52;;;17.15;;
49998;SDS011;68071;45.062;7.356;2023-03-18T16:08:56;23.83;;;16.02;;
49998;SDS011;68071;45.062;7.356;2023-03-18T16:12:07;21.95;;;16.00;;
49998;SDS011;68071;45.062;7.356;2023-03-18T16:15:24;24.40;;;17.45;;
49998;SDS011;68071;45.062;7.356;2023-03-18T16:18:40;22.08;;;16.75;;
49998;SDS011;68071;45.062;7.356;2023-03-18T16:21:53;23.38;;;16.00;;
49998;SDS011;68071;45.062;7.356;2023-03-18T16:25:19;26.00;;;18.17;;
49998;SDS011;68071;45.062;7.356;2023-03-18T16:28:27;23.67;;;16.88;;
49998;SDS011;68071;45.062;7.356;2023-03-18T16:31:44;23.17;;;17.17;;
49998;SDS011;68071;45.062;7.356;2023-03-18T16:34:52;28.33;;;16.88;;
49998;SDS011;68071;45.062;7.356;2023-03-18T16:37:59;26.02;;;18.38;;
49998;SDS011;68071;45.062;7.356;2023-03-18T16:41:12;26.85;;;18.02;;
49998;SDS011;68071;45.062;7.356;2023-03-18T16:44:30;25.40;;;17.35;;
49998;SDS011;68071;45.062;7.356;2023-03-18T16:47:47;27.45;;;18.65;;
49998;SDS011;68071;45.062;7.356;2023-03-18T16:50:58;28.88;;;20.02;;
49998;SDS011;68071;45.062;7.356;2023-03-18T16:54:20;28.45;;;20.88;;
49998;SDS011;68071;45.062;7.356;2023-03-18T16:57:33;27.20;;;20.40;;
49998;SDS011;68071;45.062;7.356;2023-03-18T17:00:44;26.92;;;20.20;;
49998;SDS011;68071;45.062;7.356;2023-03-18T17:03:53;28.77;;;20.60;;
49998;SDS011;68071;45.062;7.356;2023-03-18T17:06:59;27.50;;;19.27;;
49998;SDS011;68071;45.062;7.356;2023-03-18T17:10:09;28.80;;;20.33;;
49998;SDS011;68071;45.062;7.356;2023-03-18T17:13:22;31.25;;;23.40;;
49998;SDS011;68071;45.062;7.356;2023-03-18T17:16:30;41.78;;;27.90;;
49998;SDS011;68071;45.062;7.356;2023-03-18T17:19:39;27.95;;;21.23;;
49998;SDS011;68071;45.062;7.356;2023-03-18T17:22:48;33.55;;;23.67;;
49998;SDS011;68071;45.062;7.356;2023-03-18T17:25:55;32.17;;;22.75;;
49998;SDS011;68071;45.062;7.356;2023-03-18T17:29:03;36.92;;;27.30;;
49998;SDS011;68071;45.062;7.356;2023-03-18T17:32:09;37.88;;;29.83;;
49998;SDS011;68071;45.062;7.356;2023-03-18T17:35:17;39.78;;;30.60;;
49998;SDS011;68071;45.062;7.356;2023-03-18T17:38:25;62.65;;;45.35;;
49998;SDS011;68071;45.062;7.356;2023-03-18T17:41:31;35.53;;;26.70;;
49998;SDS011;68071;45.062;7.356;2023-03-18T17:44:36;48.63;;;36.65;;
49998;SDS011;68071;45.062;7.356;2023-03-18T17:47:43;29.02;;;21.58;;
49998;SDS011;68071;45.062;7.356;2023-03-18T17:50:49;29.27;;;20.40;;
49998;SDS011;68071;45.062;7.356;2023-03-18T17:53:58;34.63;;;23.65;;
49998;SDS011;68071;45.062;7.356;2023-03-18T17:57:02;34.75;;;26.48;;
49998;SDS011;68071;45.062;7.356;2023-03-18T18:00:12;28.55;;;21.55;;
49998;SDS011;68071;45.062;7.356;2023-03-18T18:03:20;28.63;;;22.20;;
49998;SDS011;68071;45.062;7.356;2023-03-18T18:06:28;39.33;;;26.58;;
49998;SDS011;68071;45.062;7.356;2023-03-18T18:09:33;50.03;;;33.28;;
49998;SDS011;68071;45.062;7.356;2023-03-18T18:12:38;55.10;;;38.13;;
49998;SDS011;68071;45.062;7.356;2023-03-18T18:15:44;45.10;;;32.22;;
49998;SDS011;68071;45.062;7.356;2023-03-18T18:18:49;28.85;;;21.63;;
49998;SDS011;68071;45.062;7.356;2023-03-18T18:21:54;30.57;;;21.33;;
49998;SDS011;68071;45.062;7.356;2023-03-18T18:24:58;27.30;;;20.98;;
49998;SDS011;68071;45.062;7.356;2023-03-18T18:28:05;34.42;;;22.20;;
49998;SDS011;68071;45.062;7.356;2023-03-18T18:31:36;33.08;;;25.00;;
49998;SDS011;68071;45.062;7.356;2023-03-18T18:34:40;31.20;;;24.58;;
49998;SDS011;68071;45.062;7.356;2023-03-18T18:37:45;34.53;;;25.95;;
49998;SDS011;68071;45.062;7.356;2023-03-18T18:40:51;35.03;;;28.75;;
49998;SDS011;68071;45.062;7.356;2023-03-18T18:43:58;37.35;;;30.02;;
49998;SDS011;68071;45.062;7.356;2023-03-18T18:47:10;41.80;;;33.65;;
49998;SDS011;68071;45.062;7.356;2023-03-18T18:50:22;33.85;;;30.27;;
49998;SDS011;68071;45.062;7.356;2023-03-18T18:53:33;41.03;;;32.10;;
49998;SDS011;68071;45.062;7.356;2023-03-18T18:56:41;34.80;;;27.88;;
49998;SDS011;68071;45.062;7.356;2023-03-18T19:02:52;26.23;;;21.13;;
49998;SDS011;68071;45.062;7.356;2023-03-18T19:06:04;26.58;;;20.67;;
49998;SDS011;68071;45.062;7.356;2023-03-18T19:09:16;28.60;;;19.90;;
49998;SDS011;68071;45.062;7.356;2023-03-18T19:12:25;32.75;;;24.42;;
49998;SDS011;68071;45.062;7.356;2023-03-18T19:15:38;31.73;;;22.90;;
49998;SDS011;68071;45.062;7.356;2023-03-18T19:18:46;28.10;;;21.70;;
49998;SDS011;68071;45.062;7.356;2023-03-18T19:21:56;25.65;;;20.55;;
49998;SDS011;68071;45.062;7.356;2023-03-18T19:25:11;30.77;;;23.15;;
49998;SDS011;68071;45.062;7.356;2023-03-18T19:28:31;30.67;;;22.05;;
49998;SDS011;68071;45.062;7.356;2023-03-18T19:31:52;29.48;;;22.80;;
49998;SDS011;68071;45.062;7.356;2023-03-18T19:34:58;30.13;;;24.15;;
49998;SDS011;68071;45.062;7.356;2023-03-18T19:38:16;31.02;;;22.67;;
49998;SDS011;68071;45.062;7.356;2023-03-18T19:41:27;28.35;;;22.63;;
49998;SDS011;68071;45.062;7.356;2023-03-18T19:44:34;29.48;;;23.92;;
49998;SDS011;68071;45.062;7.356;2023-03-18T19:47:49;33.90;;;23.45;;
49998;SDS011;68071;45.062;7.356;2023-03-18T19:50:57;28.05;;;21.38;;
49998;SDS011;68071;45.062;7.356;2023-03-18T19:54:03;28.45;;;23.00;;
49998;SDS011;68071;45.062;7.356;2023-03-18T19:57:35;33.47;;;25.08;;
49998;SDS011;68071;45.062;7.356;2023-03-18T20:00:39;31.25;;;23.33;;
49998;SDS011;68071;45.062;7.356;2023-03-18T20:03:44;28.73;;;23.37;;
49998;SDS011;68071;45.062;7.356;2023-03-18T20:06:49;29.58;;;23.67;;
49998;SDS011;68071;45.062;7.356;2023-03-18T20:09:56;27.70;;;21.00;;
49998;SDS011;68071;45.062;7.356;2023-03-18T20:13:01;28.10;;;21.33;;
49998;SDS011;68071;45.062;7.356;2023-03-18T20:16:08;28.73;;;21.65;;
49998;SDS011;68071;45.062;7.356;2023-03-18T20:19:17;28.92;;;20.83;;
49998;SDS011;68071;45.062;7.356;2023-03-18T20:22:27;31.30;;;22.17;;
49998;SDS011;68071;45.062;7.356;2023-03-18T20:25:37;28.58;;;21.88;;
49998;SDS011;68071;45.062;7.356;2023-03-18T20:28:45;33.60;;;25.08;;
49998;SDS011;68071;45.062;7.356;2023-03-18T20:31:52;33.00;;;22.10;;
49998;SDS011;68071;45.062;7.356;2023-03-18T20:34:58;30.85;;;21.10;;
49998;SDS011;68071;45.062;7.356;2023-03-18T20:41:21;29.95;;;22.00;;
49998;SDS011;68071;45.062;7.356;2023-03-18T20:44:27;29.13;;;20.92;;
49998;SDS011;68071;45.062;7.356;2023-03-18T20:47:32;28.52;;;20.67;;
49998;SDS011;68071;45.062;7.356;2023-03-18T20:50:38;29.48;;;20.60;;